createdAt,value
2023-09-10T00:00:20.658Z,27.45
2023-09-10T00:02:47.332Z,27.45
2023-09-10T00:05:14.062Z,27.45
2023-09-10T00:07:40.749Z,27.44
2023-09-10T00:10:07.914Z,27.44
2023-09-10T00:12:37.047Z,27.44
2023-09-10T00:15:05.388Z,27.44
2023-09-10T00:17:32.220Z,27.44
2023-09-10T00:19:59.091Z,27.43
2023-09-10T00:22:25.917Z,27.42
2023-09-10T00:24:52.555Z,27.44
2023-09-10T00:27:19.200Z,27.42
2023-09-10T00:29:45.862Z,27.42
2023-09-10T00:32:12.597Z,27.41
2023-09-10T00:34:41.589Z,27.41
2023-09-10T00:37:08.817Z,27.41
2023-09-10T00:39:35.473Z,27.41
2023-09-10T00:42:02.157Z,27.40
2023-09-10T00:44:28.841Z,27.40
2023-09-10T00:46:55.616Z,27.40
2023-09-10T00:49:22.294Z,27.41
2023-09-10T00:51:49.153Z,27.40
2023-09-10T00:54:16.363Z,27.39
2023-09-10T00:56:43.178Z,27.39
2023-09-10T00:59:10.109Z,27.38
2023-09-10T01:01:37.250Z,27.39
2023-09-10T01:04:04.279Z,27.38
2023-09-10T01:06:31.278Z,27.38
2023-09-10T01:08:58.220Z,27.38
2023-09-10T01:11:43.818Z,27.38
2023-09-10T01:14:22.309Z,27.38
2023-09-10T01:16:58.171Z,27.38
2023-09-10T01:19:24.898Z,27.37
2023-09-10T01:21:58.607Z,27.37
2023-09-10T01:24:36.503Z,27.36
2023-09-10T01:27:04.117Z,27.36
2023-09-10T01:29:30.844Z,27.35
2023-09-10T01:32:01.823Z,27.35
2023-09-10T01:34:31.965Z,27.35
2023-09-10T01:37:03.330Z,27.34
2023-09-10T01:39:38.271Z,27.34
2023-09-10T01:42:08.569Z,27.35
2023-09-10T01:44:36.230Z,27.35
2023-09-10T01:47:03.240Z,27.34
2023-09-10T01:49:29.880Z,27.33
2023-09-10T01:51:56.530Z,27.33
2023-09-10T01:54:23.272Z,27.34
2023-09-10T01:56:50.080Z,27.32
2023-09-10T01:59:16.881Z,27.33
2023-09-10T02:01:43.748Z,27.33
2023-09-10T02:04:10.606Z,27.33
2023-09-10T02:06:37.367Z,27.31
2023-09-10T02:09:04.235Z,27.31
2023-09-10T02:11:30.918Z,27.30
2023-09-10T02:13:57.631Z,27.30
2023-09-10T02:16:24.668Z,27.30
2023-09-10T02:18:51.365Z,27.29
2023-09-10T02:21:18.056Z,27.29
2023-09-10T02:23:44.979Z,27.28
2023-09-10T02:26:11.744Z,27.29
2023-09-10T02:28:38.639Z,27.30
2023-09-10T02:31:08.936Z,27.29
2023-09-10T02:33:36.203Z,27.29
2023-09-10T02:36:03.540Z,27.29
2023-09-10T02:38:30.393Z,27.28
2023-09-10T02:40:57.372Z,27.27
2023-09-10T02:43:24.185Z,27.26
2023-09-10T02:45:50.833Z,27.26
2023-09-10T02:48:17.449Z,27.26
2023-09-10T02:50:44.132Z,27.26
2023-09-10T02:53:13.182Z,27.26
2023-09-10T02:55:39.902Z,27.27
2023-09-10T02:58:09.712Z,27.25
2023-09-10T03:00:36.416Z,27.25
2023-09-10T03:03:05.602Z,27.24
2023-09-10T03:05:35.822Z,27.25
2023-09-10T03:08:02.580Z,27.25
2023-09-10T03:10:29.256Z,27.24
2023-09-10T03:12:55.927Z,27.23
2023-09-10T03:15:22.549Z,27.23
2023-09-10T03:17:52.149Z,27.23
2023-09-10T03:20:18.887Z,27.23
2023-09-10T03:22:45.764Z,27.23
2023-09-10T03:25:12.606Z,27.23
2023-09-10T03:27:39.398Z,27.23
2023-09-10T03:30:06.708Z,27.21
2023-09-10T03:32:33.637Z,27.22
2023-09-10T03:35:00.485Z,27.20
2023-09-10T03:37:27.142Z,27.20
2023-09-10T03:39:53.802Z,27.19
2023-09-10T03:42:20.457Z,27.19
2023-09-10T03:44:47.200Z,27.20
2023-09-10T03:47:13.924Z,27.18
2023-09-10T03:49:40.725Z,27.17
2023-09-10T03:52:17.542Z,27.16
2023-09-10T03:54:44.175Z,27.17
2023-09-10T03:57:10.848Z,27.15
2023-09-10T03:59:37.462Z,27.16
2023-09-10T04:02:04.374Z,27.15
2023-09-10T04:04:31.098Z,27.16
2023-09-10T04:06:57.784Z,27.15
2023-09-10T04:09:25.584Z,27.14
2023-09-10T04:11:52.289Z,27.14
2023-09-10T04:14:19.277Z,27.13
2023-09-10T04:16:46.123Z,27.13
2023-09-10T04:19:12.943Z,27.13
2023-09-10T04:21:39.579Z,27.13
2023-09-10T04:24:06.720Z,27.13
2023-09-10T04:26:33.437Z,27.12
2023-09-10T04:29:00.128Z,27.11
2023-09-10T04:31:29.384Z,27.12
2023-09-10T04:33:56.246Z,27.12
2023-09-10T04:36:23.484Z,27.11
2023-09-10T04:38:50.186Z,27.11
2023-09-10T04:41:17.000Z,27.10
2023-09-10T04:43:43.724Z,27.11
2023-09-10T04:46:10.433Z,27.10
2023-09-10T04:48:37.518Z,27.09
2023-09-10T04:51:04.879Z,27.10
2023-09-10T04:53:34.236Z,27.09
2023-09-10T04:56:01.012Z,27.09
2023-09-10T04:58:27.686Z,27.08
2023-09-10T05:00:54.345Z,27.06
2023-09-10T05:03:22.539Z,27.08
2023-09-10T05:05:49.620Z,27.08
2023-09-10T05:08:18.251Z,27.07
2023-09-10T05:10:49.153Z,27.06
2023-09-10T05:13:15.924Z,27.06
2023-09-10T05:15:42.678Z,27.05
2023-09-10T05:18:09.512Z,27.06
2023-09-10T05:20:36.408Z,27.05
2023-09-10T05:23:03.111Z,27.05
2023-09-10T05:25:29.751Z,27.05
2023-09-10T05:27:56.368Z,27.03
2023-09-10T05:30:23.418Z,27.04
2023-09-10T05:32:50.192Z,27.05
2023-09-10T05:35:19.982Z,27.04
2023-09-10T05:37:48.957Z,27.03
2023-09-10T05:40:15.694Z,27.04
2023-09-10T05:42:42.449Z,27.03
2023-09-10T05:45:09.429Z,27.02
2023-09-10T05:47:36.204Z,27.02
2023-09-10T05:50:03.078Z,27.01
2023-09-10T05:52:29.796Z,27.03
2023-09-10T05:54:56.466Z,27.02
2023-09-10T05:57:23.135Z,27.02
2023-09-10T05:59:50.778Z,27.02
2023-09-10T06:02:17.633Z,27.01
2023-09-10T06:04:44.430Z,27.03
2023-09-10T06:07:11.402Z,27.03
2023-09-10T06:09:38.214Z,27.03
2023-09-10T06:12:05.250Z,27.01
2023-09-10T06:14:34.949Z,27.02
2023-09-10T06:17:02.442Z,27.01
2023-09-10T06:19:29.170Z,27.02
2023-09-10T06:21:55.781Z,27.03
2023-09-10T06:24:22.546Z,27.02
2023-09-10T06:26:49.208Z,27.02
2023-09-10T06:29:15.922Z,27.03
2023-09-10T06:31:42.702Z,27.03
2023-09-10T06:34:09.450Z,27.03
2023-09-10T06:36:36.436Z,27.02
2023-09-10T06:39:04.781Z,27.04
2023-09-10T06:41:31.415Z,27.04
2023-09-10T06:43:58.085Z,27.04
2023-09-10T06:46:25.068Z,27.03
2023-09-10T06:48:51.784Z,27.03
2023-09-10T06:51:18.418Z,27.05
2023-09-10T06:53:45.083Z,27.05
2023-09-10T06:56:11.773Z,27.04
2023-09-10T06:58:38.816Z,27.05
2023-09-10T07:01:06.573Z,27.05
2023-09-10T07:03:34.638Z,27.06
2023-09-10T07:06:03.949Z,27.06
2023-09-10T07:08:30.648Z,27.06
2023-09-10T07:10:58.543Z,27.06
2023-09-10T07:13:25.197Z,27.06
2023-09-10T07:15:54.297Z,27.06
2023-09-10T07:18:21.008Z,27.09
2023-09-10T07:20:47.758Z,27.09
2023-09-10T07:23:14.560Z,27.09
2023-09-10T07:25:41.279Z,27.10
2023-09-10T07:28:07.995Z,27.10
2023-09-10T07:30:34.634Z,27.12
2023-09-10T07:33:01.295Z,27.12
2023-09-10T07:35:28.919Z,27.13
2023-09-10T07:37:56.056Z,27.14
2023-09-10T07:40:22.781Z,27.16
2023-09-10T07:42:49.445Z,27.17
2023-09-10T07:45:16.239Z,27.19
2023-09-10T07:47:43.205Z,27.20
2023-09-10T07:50:10.385Z,27.22
2023-09-10T07:52:37.112Z,27.22
2023-09-10T07:55:04.216Z,27.24
2023-09-10T07:57:30.837Z,27.27
2023-09-10T07:59:57.524Z,27.29
2023-09-10T08:02:28.120Z,27.31
2023-09-10T08:04:55.126Z,27.32
2023-09-10T08:07:21.921Z,27.35
2023-09-10T08:09:48.815Z,27.37
2023-09-10T08:12:15.478Z,27.39
2023-09-10T08:14:42.815Z,27.40
2023-09-10T08:17:09.609Z,27.43
2023-09-10T08:19:36.374Z,27.45
2023-09-10T08:22:03.571Z,27.47
2023-09-10T08:24:30.236Z,27.48
2023-09-10T08:26:56.926Z,27.50
2023-09-10T08:29:23.718Z,27.52
2023-09-10T08:31:50.471Z,27.53
2023-09-10T08:34:17.133Z,27.54
2023-09-10T08:36:43.892Z,27.55
2023-09-10T08:39:12.746Z,27.57
2023-09-10T08:41:55.328Z,27.61
2023-09-10T08:44:22.072Z,27.62
2023-09-10T08:46:50.305Z,27.64
2023-09-10T08:49:19.867Z,27.65
2023-09-10T08:51:46.667Z,27.66
2023-09-10T08:54:13.796Z,27.67
2023-09-10T08:56:40.412Z,27.69
2023-09-10T08:59:07.156Z,27.71
2023-09-10T09:01:34.804Z,27.70
2023-09-10T09:04:01.848Z,27.72
2023-09-10T09:06:30.199Z,27.74
2023-09-10T09:08:58.431Z,27.74
2023-09-10T09:11:25.320Z,27.76
2023-09-10T09:13:53.606Z,27.79
2023-09-10T09:16:21.747Z,27.78
2023-09-10T09:18:48.454Z,27.79
2023-09-10T09:21:20.142Z,27.81
2023-09-10T09:23:53.480Z,27.82
2023-09-10T09:26:20.333Z,27.84
2023-09-10T09:28:47.101Z,27.85
2023-09-10T09:31:13.832Z,27.86
2023-09-10T09:33:40.850Z,27.87
2023-09-10T09:36:11.172Z,27.89
2023-09-10T09:38:45.863Z,27.89
2023-09-10T09:41:13.208Z,27.91
2023-09-10T09:43:39.952Z,27.92
2023-09-10T09:46:06.664Z,27.92
2023-09-10T09:48:34.310Z,27.93
2023-09-10T09:51:00.987Z,27.93
2023-09-10T09:53:28.457Z,27.94
2023-09-10T09:56:00.419Z,27.95
2023-09-10T09:58:27.437Z,27.97
2023-09-10T10:00:54.220Z,27.97
2023-09-10T10:03:21.054Z,27.98
2023-09-10T10:05:51.749Z,27.98
2023-09-10T10:08:30.344Z,28.01
2023-09-10T10:10:59.887Z,28.03
2023-09-10T10:13:27.570Z,28.02
2023-09-10T10:15:55.648Z,28.03
2023-09-10T10:18:23.500Z,28.04
2023-09-10T10:20:51.022Z,28.05
2023-09-10T10:23:25.375Z,28.06
2023-09-10T10:25:54.159Z,28.06
2023-09-10T10:28:21.249Z,28.06
2023-09-10T10:30:49.836Z,28.07
2023-09-10T10:33:20.514Z,28.07
2023-09-10T10:36:10.884Z,28.07
2023-09-10T10:38:40.249Z,28.08
2023-09-10T10:41:18.813Z,28.08
2023-09-10T10:43:52.153Z,28.08
2023-09-10T10:46:19.506Z,28.08
2023-09-10T10:48:46.257Z,28.09
2023-09-10T10:51:16.134Z,28.08
2023-09-10T10:53:44.952Z,28.08
2023-09-10T10:56:11.598Z,28.09
2023-09-10T10:58:41.485Z,28.10
2023-09-10T11:01:08.291Z,28.10
2023-09-10T11:03:35.109Z,28.09
2023-09-10T11:06:06.111Z,28.09
2023-09-10T11:08:36.142Z,28.09
2023-09-10T11:11:04.910Z,28.10
2023-09-10T11:13:33.069Z,28.10
2023-09-10T11:16:06.283Z,28.10
2023-09-10T11:18:35.929Z,28.11
2023-09-10T11:21:09.574Z,28.09
2023-09-10T11:23:40.154Z,28.10
2023-09-10T11:26:16.384Z,28.10
2023-09-10T11:28:48.068Z,28.11
2023-09-10T11:31:39.939Z,28.10
2023-09-10T11:34:19.289Z,28.10
2023-09-10T11:36:47.437Z,28.10
2023-09-10T11:39:15.462Z,28.08
2023-09-10T11:41:49.258Z,28.09
2023-09-10T11:44:16.233Z,28.09
2023-09-10T11:46:45.540Z,28.08
2023-09-10T11:49:14.233Z,28.08
2023-09-10T11:51:42.428Z,28.10
2023-09-10T11:54:11.231Z,28.07
2023-09-10T11:56:37.935Z,28.08
2023-09-10T11:59:06.766Z,28.07
2023-09-10T12:01:33.503Z,28.08
2023-09-10T12:04:01.581Z,28.07
2023-09-10T12:06:28.335Z,28.07
2023-09-10T12:08:55.438Z,28.07
2023-09-10T12:11:22.218Z,28.07
2023-09-10T12:13:48.904Z,28.07
2023-09-10T12:16:15.629Z,28.06
2023-09-10T12:18:42.926Z,28.06
2023-09-10T12:21:15.498Z,28.06
2023-09-10T12:23:42.896Z,28.06
2023-09-10T12:26:09.811Z,28.05
2023-09-10T12:28:36.434Z,28.05
2023-09-10T12:31:03.682Z,28.06
2023-09-10T12:33:30.380Z,28.06
2023-09-10T12:35:57.210Z,28.06
2023-09-10T12:38:23.983Z,28.05
2023-09-10T12:40:51.467Z,28.05
2023-09-10T12:43:21.910Z,28.04
2023-09-10T12:45:48.682Z,28.05
2023-09-10T12:48:19.000Z,28.04
2023-09-10T12:50:46.612Z,28.04
2023-09-10T12:53:15.461Z,28.04
2023-09-10T12:55:42.642Z,28.05
2023-09-10T12:58:12.936Z,28.03
2023-09-10T13:00:39.742Z,28.04
2023-09-10T13:03:06.875Z,28.03
2023-09-10T13:05:33.652Z,28.04
2023-09-10T13:08:04.426Z,28.03
2023-09-10T13:10:31.211Z,28.04
2023-09-10T13:12:57.883Z,28.03
2023-09-10T13:15:24.558Z,28.03
2023-09-10T13:17:51.456Z,28.03
2023-09-10T13:20:18.398Z,28.02
2023-09-10T13:22:45.559Z,28.02
2023-09-10T13:25:12.823Z,28.02
2023-09-10T13:27:39.682Z,28.03
2023-09-10T13:30:07.399Z,28.03
2023-09-10T13:32:34.174Z,28.01
2023-09-10T13:35:01.071Z,28.01
2023-09-10T13:37:27.787Z,28.02
2023-09-10T13:39:54.377Z,28.02
2023-09-10T13:42:21.151Z,28.02
2023-09-10T13:44:48.064Z,28.01
2023-09-10T13:47:14.878Z,28.02
2023-09-10T13:49:41.568Z,28.01
2023-09-10T13:52:08.200Z,28.01
2023-09-10T13:54:34.825Z,28.01
2023-09-10T13:57:01.512Z,28.01
2023-09-10T13:59:28.244Z,28.01
2023-09-10T14:01:55.004Z,28.01
2023-09-10T14:04:21.695Z,28.00
2023-09-10T14:06:48.319Z,28.01
2023-09-10T14:09:14.977Z,28.01
2023-09-10T14:11:41.713Z,28.01
2023-09-10T14:14:08.434Z,28.00
2023-09-10T14:16:35.113Z,27.99
2023-09-10T14:19:01.934Z,27.99
2023-09-10T14:21:28.602Z,27.98
2023-09-10T14:23:55.230Z,27.99
2023-09-10T14:26:21.876Z,28.00
2023-09-10T14:28:48.524Z,27.99
2023-09-10T14:31:15.294Z,27.99
2023-09-10T14:33:43.597Z,27.99
2023-09-10T14:36:10.770Z,27.99
2023-09-10T14:38:37.503Z,27.99
2023-09-10T14:41:04.206Z,27.99
2023-09-10T14:43:30.872Z,27.98
2023-09-10T14:45:58.114Z,27.98
2023-09-10T14:48:25.080Z,27.97
2023-09-10T14:50:52.152Z,27.97
2023-09-10T14:53:18.954Z,27.97
2023-09-10T14:55:45.691Z,27.97
2023-09-10T14:58:12.661Z,27.97
2023-09-10T15:00:40.264Z,27.97
2023-09-10T15:03:08.316Z,27.97
2023-09-10T15:05:35.376Z,27.97
2023-09-10T15:08:02.295Z,27.97
2023-09-10T15:10:28.994Z,27.96
2023-09-10T15:12:55.748Z,27.97
2023-09-10T15:15:22.447Z,27.97
2023-09-10T15:17:49.214Z,27.96
2023-09-10T15:20:16.059Z,27.96
2023-09-10T15:22:44.286Z,27.96
2023-09-10T15:25:11.364Z,27.96
2023-09-10T15:27:39.283Z,27.96
2023-09-10T15:30:06.467Z,27.95
2023-09-10T15:32:33.233Z,27.96
2023-09-10T15:34:59.954Z,27.95
2023-09-10T15:37:26.700Z,27.96
2023-09-10T15:39:53.544Z,27.95
2023-09-10T15:42:20.165Z,27.95
2023-09-10T15:44:46.996Z,27.94
2023-09-10T15:47:13.758Z,27.94
2023-09-10T15:49:40.477Z,27.95
2023-09-10T15:52:07.214Z,27.95
2023-09-10T15:54:36.324Z,27.96
2023-09-10T15:57:04.755Z,27.94
2023-09-10T15:59:31.724Z,27.94
2023-09-10T16:02:15.390Z,27.94
2023-09-10T16:04:42.137Z,27.95
2023-09-10T16:07:08.858Z,27.93
2023-09-10T16:09:35.523Z,27.93
2023-09-10T16:12:02.293Z,27.94
2023-09-10T16:14:28.962Z,27.93
2023-09-10T16:16:56.770Z,27.94
2023-09-10T16:19:23.705Z,27.92
2023-09-10T16:21:50.353Z,27.93
2023-09-10T16:24:17.010Z,27.92
2023-09-10T16:26:43.811Z,27.93
2023-09-10T16:29:10.877Z,27.92
2023-09-10T16:31:37.515Z,27.92
2023-09-10T16:34:04.335Z,27.92
2023-09-10T16:36:34.691Z,27.92
2023-09-10T16:39:01.920Z,27.92
2023-09-10T16:41:28.676Z,27.92
2023-09-10T16:43:55.376Z,27.90
2023-09-10T16:46:22.249Z,27.92
2023-09-10T16:48:48.996Z,27.91
2023-09-10T16:51:15.814Z,27.91
2023-09-10T16:53:43.219Z,27.90
2023-09-10T16:56:10.231Z,27.91
2023-09-10T16:58:39.377Z,27.91
2023-09-10T17:01:06.148Z,27.90
2023-09-10T17:03:33.168Z,27.90
2023-09-10T17:06:09.339Z,27.90
2023-09-10T17:08:36.216Z,27.91
2023-09-10T17:11:04.207Z,27.90
2023-09-10T17:13:31.288Z,27.90
2023-09-10T17:16:06.821Z,27.89
2023-09-10T17:18:33.908Z,27.90
2023-09-10T17:21:00.578Z,27.89
2023-09-10T17:23:27.274Z,27.88
2023-09-10T17:26:00.649Z,27.89
2023-09-10T17:28:27.354Z,27.89
2023-09-10T17:30:54.011Z,27.89
2023-09-10T17:33:20.719Z,27.89
2023-09-10T17:35:50.265Z,27.88
2023-09-10T17:38:17.896Z,27.89
2023-09-10T17:40:44.736Z,27.88
2023-09-10T17:43:11.482Z,27.88
2023-09-10T17:45:38.182Z,27.88
2023-09-10T17:48:05.363Z,27.88
2023-09-10T17:50:32.148Z,27.88
2023-09-10T17:52:58.828Z,27.88
2023-09-10T17:55:29.076Z,27.87
2023-09-10T17:57:56.644Z,27.87
2023-09-10T18:00:23.941Z,27.87
2023-09-10T18:02:51.299Z,27.86
2023-09-10T18:05:18.373Z,27.88
2023-09-10T18:07:45.029Z,27.88
2023-09-10T18:10:11.934Z,27.88
2023-09-10T18:12:38.711Z,27.86
2023-09-10T18:15:06.227Z,27.88
2023-09-10T18:17:33.663Z,27.86
2023-09-10T18:20:00.719Z,27.86
2023-09-10T18:22:27.384Z,27.87
2023-09-10T18:24:54.134Z,27.86
2023-09-10T18:27:20.812Z,27.86
2023-09-10T18:29:47.646Z,27.87
2023-09-10T18:32:14.520Z,27.86
2023-09-10T18:34:41.198Z,27.87
2023-09-10T18:37:07.861Z,27.85
2023-09-10T18:39:34.531Z,27.86
2023-09-10T18:42:01.232Z,27.86
2023-09-10T18:44:28.020Z,27.85
2023-09-10T18:46:55.479Z,27.85
2023-09-10T18:49:22.148Z,27.86
2023-09-10T18:52:11.121Z,27.86
2023-09-10T18:54:38.552Z,27.85
2023-09-10T18:57:06.559Z,27.84
2023-09-10T18:59:33.593Z,27.84
2023-09-10T19:02:00.476Z,27.86
2023-09-10T19:04:27.606Z,27.85
2023-09-10T19:06:54.347Z,27.84
2023-09-10T19:09:20.984Z,27.84
2023-09-10T19:11:47.764Z,27.85
2023-09-10T19:14:17.689Z,27.85
2023-09-10T19:16:44.666Z,27.84
2023-09-10T19:19:11.456Z,27.85
2023-09-10T19:21:41.135Z,27.84
2023-09-10T19:24:08.069Z,27.84
2023-09-10T19:26:34.951Z,27.85
2023-09-10T19:29:01.876Z,27.84
2023-09-10T19:31:34.599Z,27.84
2023-09-10T19:34:04.402Z,27.83
2023-09-10T19:36:34.465Z,27.83
2023-09-10T19:39:08.840Z,27.83
2023-09-10T19:41:35.846Z,27.83
2023-09-10T19:44:03.142Z,27.83
2023-09-10T19:46:30.585Z,27.83
2023-09-10T19:48:57.301Z,27.83
2023-09-10T19:51:24.339Z,27.82
2023-09-10T19:53:53.665Z,27.83
2023-09-10T19:56:23.305Z,27.81
2023-09-10T19:59:07.565Z,27.82
2023-09-10T20:01:44.885Z,27.82
2023-09-10T20:04:12.109Z,27.81
2023-09-10T20:06:39.822Z,27.81
2023-09-10T20:09:08.486Z,27.81
2023-09-10T20:11:35.581Z,27.81
2023-09-10T20:14:02.551Z,27.80
2023-09-10T20:16:29.275Z,27.81
2023-09-10T20:18:56.229Z,27.80
2023-09-10T20:21:23.916Z,27.81
2023-09-10T20:23:50.651Z,27.81
2023-09-10T20:26:17.407Z,27.81
2023-09-10T20:28:44.211Z,27.80
2023-09-10T20:31:10.962Z,27.81
2023-09-10T20:33:37.734Z,27.80
2023-09-10T20:36:08.304Z,27.80
2023-09-10T20:38:35.870Z,27.81
2023-09-10T20:41:05.951Z,27.80
2023-09-10T20:43:32.605Z,27.79
2023-09-10T20:45:59.248Z,27.80
2023-09-10T20:48:25.893Z,27.79
2023-09-10T20:50:53.941Z,27.79
2023-09-10T20:53:20.885Z,27.80
2023-09-10T20:55:47.610Z,27.79
2023-09-10T20:58:14.357Z,27.79
2023-09-10T21:00:41.661Z,27.80
2023-09-10T21:03:18.235Z,27.79
2023-09-10T21:05:53.291Z,27.80
2023-09-10T21:08:20.385Z,27.80
2023-09-10T21:10:47.265Z,27.80
2023-09-10T21:13:14.028Z,27.80
2023-09-10T21:15:40.701Z,27.80
2023-09-10T21:18:07.659Z,27.80
2023-09-10T21:20:34.546Z,27.80
2023-09-10T21:23:01.341Z,27.79
2023-09-10T21:25:27.998Z,27.81
2023-09-10T21:27:54.749Z,27.80
2023-09-10T21:30:21.369Z,27.80
2023-09-10T21:32:48.915Z,27.80
2023-09-10T21:35:15.919Z,27.78
2023-09-10T21:37:42.651Z,27.80
2023-09-10T21:40:11.482Z,27.80
2023-09-10T21:42:38.089Z,27.80
2023-09-10T21:45:05.383Z,27.80
2023-09-10T21:47:32.271Z,27.82
2023-09-10T21:49:59.008Z,27.80
2023-09-10T21:52:25.682Z,27.80
2023-09-10T21:54:52.417Z,27.79
2023-09-10T21:57:19.218Z,27.79
2023-09-10T21:59:46.019Z,27.79
2023-09-10T22:02:12.705Z,27.80
2023-09-10T22:04:39.489Z,27.80
2023-09-10T22:07:06.236Z,27.79
2023-09-10T22:09:33.822Z,27.80
2023-09-10T22:12:00.681Z,27.80
2023-09-10T22:14:27.373Z,27.80
2023-09-10T22:16:54.099Z,27.79
2023-09-10T22:19:20.816Z,27.79
2023-09-10T22:21:50.268Z,27.79
2023-09-10T22:24:16.950Z,27.79
2023-09-10T22:26:43.633Z,27.79
2023-09-10T22:29:10.259Z,27.78
2023-09-10T22:31:36.905Z,27.79
2023-09-10T22:34:03.641Z,27.79
2023-09-10T22:36:38.092Z,27.79
2023-09-10T22:39:06.096Z,27.78
2023-09-10T22:41:32.826Z,27.79
2023-09-10T22:43:59.548Z,27.79
2023-09-10T22:46:28.369Z,27.77
2023-09-10T22:48:55.258Z,27.77
2023-09-10T22:51:21.999Z,27.78
2023-09-10T22:53:51.942Z,27.78
2023-09-10T22:56:21.331Z,27.78
2023-09-10T22:58:48.640Z,27.78
2023-09-10T23:01:15.775Z,27.79
2023-09-10T23:03:42.744Z,27.78
2023-09-10T23:06:09.927Z,27.78
2023-09-10T23:08:39.900Z,27.78
2023-09-10T23:11:07.466Z,27.78
2023-09-10T23:13:35.938Z,27.77
2023-09-10T23:16:03.134Z,27.77
2023-09-10T23:18:30.017Z,27.77
2023-09-10T23:20:56.809Z,27.77
2023-09-10T23:23:23.625Z,27.77
2023-09-10T23:25:50.440Z,27.76
2023-09-10T23:28:17.068Z,27.76
2023-09-10T23:30:43.808Z,27.76
2023-09-10T23:33:10.754Z,27.76
2023-09-10T23:35:38.665Z,27.75
2023-09-10T23:38:07.378Z,27.76
2023-09-10T23:40:34.092Z,27.75
2023-09-10T23:43:00.791Z,27.75
2023-09-10T23:45:27.589Z,27.75
2023-09-10T23:47:54.436Z,27.75
2023-09-10T23:50:21.418Z,27.76
2023-09-10T23:52:49.272Z,27.74
2023-09-10T23:55:16.124Z,27.74
2023-09-10T23:57:42.966Z,27.73
